createdAt,value
2023-05-07T00:00:18.934Z,42613.59
2023-05-07T00:02:46.972Z,42617.59
2023-05-07T00:05:13.990Z,42629.56
2023-05-07T00:07:41.191Z,42607.59
2023-05-07T00:10:09.095Z,42633.56
2023-05-07T00:12:35.812Z,42635.56
2023-05-07T00:15:06.437Z,42649.53
2023-05-07T00:17:34.302Z,42645.56
2023-05-07T00:20:00.937Z,42651.53
2023-05-07T00:22:27.392Z,42645.56
2023-05-07T00:24:53.814Z,42631.56
2023-05-07T00:27:20.282Z,42647.53
2023-05-07T00:29:46.784Z,42637.56
2023-05-07T00:32:13.368Z,42641.56
2023-05-07T00:34:40.603Z,42653.53
2023-05-07T00:37:08.306Z,42663.53
2023-05-07T00:39:34.701Z,42657.53
2023-05-07T00:42:01.615Z,42663.53
2023-05-07T00:44:29.296Z,42657.53
2023-05-07T00:46:56.830Z,42661.53
2023-05-07T00:49:26.067Z,42663.53
2023-05-07T00:51:52.462Z,42645.56
2023-05-07T00:54:20.328Z,42669.50
2023-05-07T00:56:46.888Z,42657.53
2023-05-07T00:59:13.421Z,42657.53
2023-05-07T01:01:40.377Z,42663.53
2023-05-07T01:04:06.886Z,42641.56
2023-05-07T01:06:34.294Z,42661.53
2023-05-07T01:09:01.761Z,42657.53
2023-05-07T01:11:28.964Z,42671.50
2023-05-07T01:13:55.665Z,42645.56
2023-05-07T01:16:23.367Z,42661.53
2023-05-07T01:18:50.618Z,42669.50
2023-05-07T01:21:19.018Z,42635.56
2023-05-07T01:23:47.003Z,42665.50
2023-05-07T01:26:13.836Z,42669.50
2023-05-07T01:28:42.506Z,42641.56
2023-05-07T01:31:10.275Z,42663.53
2023-05-07T01:33:39.376Z,42643.56
2023-05-07T01:36:08.094Z,42681.50
2023-05-07T01:38:35.927Z,42661.53
2023-05-07T01:41:03.107Z,42673.50
2023-05-07T01:43:31.320Z,42693.47
2023-05-07T01:45:59.763Z,42681.50
2023-05-07T01:48:26.991Z,42673.50
2023-05-07T01:50:53.706Z,42689.47
2023-05-07T01:53:20.148Z,42669.50
2023-05-07T01:55:46.672Z,42665.50
2023-05-07T01:58:13.224Z,42689.47
2023-05-07T02:00:40.969Z,42681.50
2023-05-07T02:03:08.479Z,42697.47
2023-05-07T02:05:45.799Z,42669.50
2023-05-07T02:08:22.628Z,42705.44
2023-05-07T02:10:49.115Z,42681.50
2023-05-07T02:13:15.557Z,42695.47
2023-05-07T02:15:42.632Z,42689.47
2023-05-07T02:18:10.073Z,42701.47
2023-05-07T02:20:36.843Z,42709.44
2023-05-07T02:23:03.450Z,42711.44
2023-05-07T02:25:30.992Z,42703.47
2023-05-07T02:27:57.863Z,42715.44
2023-05-07T02:30:33.998Z,42713.44
2023-05-07T02:33:00.993Z,42703.47
2023-05-07T02:35:27.586Z,42721.44
2023-05-07T02:37:54.397Z,42733.41
2023-05-07T02:40:21.883Z,42733.41
2023-05-07T02:42:48.287Z,42717.44
2023-05-07T02:45:15.658Z,42701.47
2023-05-07T02:47:43.757Z,42741.41
2023-05-07T02:50:10.764Z,42725.41
2023-05-07T02:52:37.752Z,42741.41
2023-05-07T02:55:05.483Z,42707.44
2023-05-07T02:57:31.883Z,42705.44
2023-05-07T02:59:59.122Z,42733.41
2023-05-07T03:02:25.949Z,42727.41
2023-05-07T03:04:53.429Z,42733.41
2023-05-07T03:07:20.124Z,42731.41
2023-05-07T03:09:46.597Z,42733.41
2023-05-07T03:12:13.145Z,42741.41
2023-05-07T03:14:39.578Z,42717.44
2023-05-07T03:17:05.986Z,42721.44
2023-05-07T03:19:32.402Z,42717.44
2023-05-07T03:21:59.528Z,42741.41
2023-05-07T03:24:26.122Z,42717.44
2023-05-07T03:26:52.578Z,42729.41
2023-05-07T03:29:19.024Z,42735.41
2023-05-07T03:31:46.072Z,42737.41
2023-05-07T03:34:12.496Z,42759.38
2023-05-07T03:36:39.085Z,42745.38
2023-05-07T03:39:08.466Z,42737.41
2023-05-07T03:41:39.210Z,42751.38
2023-05-07T03:44:05.709Z,42741.41
2023-05-07T03:46:33.774Z,42743.41
2023-05-07T03:49:00.722Z,42749.38
2023-05-07T03:51:27.929Z,42741.41
2023-05-07T03:53:54.532Z,42737.41
2023-05-07T03:56:22.221Z,42753.38
2023-05-07T03:58:54.002Z,42749.38
2023-05-07T04:01:21.025Z,42757.38
2023-05-07T04:03:48.787Z,42749.38
2023-05-07T04:06:18.198Z,42749.38
2023-05-07T04:08:47.155Z,42753.38
2023-05-07T04:11:14.082Z,42749.38
2023-05-07T04:13:40.631Z,42749.38
2023-05-07T04:16:09.136Z,42753.38
2023-05-07T04:18:37.698Z,42777.34
2023-05-07T04:21:05.040Z,42769.34
2023-05-07T04:23:31.632Z,42737.41
2023-05-07T04:26:04.072Z,42743.41
2023-05-07T04:28:37.777Z,42743.41
2023-05-07T04:31:04.778Z,42749.38
2023-05-07T04:33:33.914Z,42751.38
2023-05-07T04:36:05.015Z,42757.38
2023-05-07T04:38:36.101Z,42761.38
2023-05-07T04:41:06.101Z,42747.38
2023-05-07T04:43:35.998Z,42761.38
2023-05-07T04:46:02.547Z,42771.34
2023-05-07T04:48:30.548Z,42765.34
2023-05-07T04:50:58.210Z,42773.34
2023-05-07T04:53:24.983Z,42749.38
2023-05-07T04:55:57.813Z,42773.34
2023-05-07T04:58:26.486Z,42741.41
2023-05-07T05:00:53.250Z,42759.38
2023-05-07T05:03:19.848Z,42771.34
2023-05-07T05:05:46.618Z,42761.38
2023-05-07T05:08:13.899Z,42765.34
2023-05-07T05:10:43.494Z,42765.34
2023-05-07T05:13:13.574Z,42763.34
2023-05-07T05:15:41.112Z,42771.34
2023-05-07T05:18:07.938Z,42781.34
2023-05-07T05:20:34.798Z,42767.34
2023-05-07T05:23:01.443Z,42785.31
2023-05-07T05:25:29.451Z,42757.38
2023-05-07T05:27:57.436Z,42777.34
2023-05-07T05:30:23.934Z,42757.38
2023-05-07T05:32:50.346Z,42777.34
2023-05-07T05:35:16.882Z,42777.34
2023-05-07T05:37:43.983Z,42797.31
2023-05-07T05:40:11.356Z,42781.34
2023-05-07T05:42:38.068Z,42781.34
2023-05-07T05:45:05.036Z,42805.28
2023-05-07T05:47:33.000Z,42791.31
2023-05-07T05:50:00.111Z,42805.28
2023-05-07T05:52:26.663Z,42777.34
2023-05-07T05:54:54.862Z,42785.31
2023-05-07T05:57:21.612Z,42805.28
2023-05-07T05:59:48.347Z,42817.28
2023-05-07T06:02:15.259Z,42801.31
2023-05-07T06:04:42.622Z,42805.28
2023-05-07T06:07:12.356Z,42821.28
2023-05-07T06:09:39.131Z,42827.25
2023-05-07T06:12:06.032Z,42809.28
2023-05-07T06:14:32.629Z,42833.25
2023-05-07T06:16:59.092Z,42825.25
2023-05-07T06:19:28.985Z,42829.25
2023-05-07T06:21:57.829Z,42821.28
2023-05-07T06:24:25.594Z,42817.28
2023-05-07T06:26:52.050Z,42817.28
2023-05-07T06:29:19.008Z,42779.34
2023-05-07T06:31:45.880Z,42791.31
2023-05-07T06:34:15.162Z,42789.31
2023-05-07T06:36:42.172Z,42785.31
2023-05-07T06:39:17.160Z,42781.34
2023-05-07T06:41:43.568Z,42773.34
2023-05-07T06:44:21.288Z,42777.34
2023-05-07T06:46:58.615Z,42747.38
2023-05-07T06:49:25.230Z,42757.38
2023-05-07T06:51:51.929Z,42737.41
2023-05-07T06:54:19.568Z,42725.41
2023-05-07T06:56:46.589Z,42709.44
2023-05-07T06:59:13.569Z,42691.47
2023-05-07T07:01:41.561Z,42679.50
2023-05-07T07:04:10.049Z,42681.50
2023-05-07T07:06:37.957Z,42677.50
2023-05-07T07:09:09.008Z,42701.47
2023-05-07T07:11:36.037Z,42675.50
2023-05-07T07:14:02.857Z,42683.50
2023-05-07T07:16:32.840Z,42653.53
2023-05-07T07:18:59.902Z,42653.53
2023-05-07T07:21:26.907Z,42633.56
2023-05-07T07:23:53.447Z,42637.56
2023-05-07T07:26:21.634Z,42633.56
2023-05-07T07:28:48.565Z,42643.56
2023-05-07T07:31:19.184Z,42613.59
2023-05-07T07:33:46.377Z,42617.59
2023-05-07T07:36:12.842Z,42617.59
2023-05-07T07:38:39.372Z,42589.63
2023-05-07T07:41:09.084Z,42579.66
2023-05-07T07:43:36.453Z,42561.69
2023-05-07T07:46:04.471Z,42533.72
2023-05-07T07:48:31.670Z,42549.72
2023-05-07T07:50:59.160Z,42541.72
2023-05-07T07:53:26.260Z,42523.75
2023-05-07T07:55:53.990Z,42523.75
2023-05-07T07:58:27.122Z,42511.78
2023-05-07T08:00:56.811Z,42501.78
2023-05-07T08:03:24.158Z,42469.84
2023-05-07T08:05:54.251Z,42429.91
2023-05-07T08:08:21.707Z,42431.91
2023-05-07T08:10:52.638Z,42431.91
2023-05-07T08:13:26.847Z,42381.97
2023-05-07T08:15:54.201Z,42425.91
2023-05-07T08:18:20.744Z,42405.94
2023-05-07T08:20:47.976Z,42401.94
2023-05-07T08:23:18.467Z,42391.97
2023-05-07T08:25:46.178Z,42370.00
2023-05-07T08:28:13.859Z,42364.00
2023-05-07T08:30:41.667Z,42354.03
2023-05-07T08:33:09.849Z,42366.00
2023-05-07T08:35:36.445Z,42362.03
2023-05-07T08:38:03.961Z,42354.03
2023-05-07T08:40:37.263Z,42320.09
2023-05-07T08:43:03.956Z,42338.06
2023-05-07T08:45:33.602Z,42312.09
2023-05-07T08:48:02.900Z,42336.06
2023-05-07T08:50:36.745Z,42326.09
2023-05-07T08:53:05.967Z,42322.09
2023-05-07T08:55:34.087Z,42308.09
2023-05-07T08:58:01.673Z,42280.16
2023-05-07T09:00:30.186Z,42298.13
2023-05-07T09:02:58.458Z,42290.13
2023-05-07T09:05:25.782Z,42302.13
2023-05-07T09:07:54.381Z,42294.13
2023-05-07T09:10:22.696Z,42286.16
2023-05-07T09:12:49.791Z,42282.16
2023-05-07T09:15:18.127Z,42288.16
2023-05-07T09:17:45.372Z,42266.19
2023-05-07T09:20:12.605Z,42274.16
2023-05-07T09:22:39.984Z,42266.19
2023-05-07T09:25:10.707Z,42258.19
2023-05-07T09:27:38.823Z,42250.22
2023-05-07T09:30:07.519Z,42240.22
2023-05-07T09:32:38.845Z,42220.25
2023-05-07T09:35:07.008Z,42226.25
2023-05-07T09:37:33.499Z,42206.28
2023-05-07T09:40:00.573Z,42190.31
2023-05-07T09:42:29.950Z,42182.31
2023-05-07T09:45:00.799Z,42168.34
2023-05-07T09:47:33.843Z,42146.41
2023-05-07T09:50:06.443Z,42150.38
2023-05-07T09:52:36.212Z,42118.44
2023-05-07T09:55:06.919Z,42122.44
2023-05-07T09:57:34.734Z,42100.47
2023-05-07T10:00:06.242Z,42094.47
2023-05-07T10:02:53.694Z,42076.50
2023-05-07T10:05:31.117Z,42078.50
2023-05-07T10:08:02.599Z,42068.53
2023-05-07T10:10:32.437Z,42070.53
2023-05-07T10:12:59.817Z,42052.56
2023-05-07T10:15:33.158Z,42042.56
2023-05-07T10:18:02.587Z,42046.56
2023-05-07T10:20:29.974Z,42052.56
2023-05-07T10:22:59.450Z,42036.59
2023-05-07T10:25:33.682Z,41998.66
2023-05-07T10:28:09.811Z,42006.66
2023-05-07T10:31:03.487Z,41998.66
2023-05-07T10:33:38.499Z,42002.66
2023-05-07T10:36:06.700Z,41994.66
2023-05-07T10:38:34.530Z,41990.66
2023-05-07T10:41:02.773Z,41968.72
2023-05-07T10:43:45.072Z,42000.66
2023-05-07T10:46:21.118Z,41954.75
2023-05-07T10:49:12.781Z,41958.72
2023-05-07T10:52:17.963Z,41946.75
2023-05-07T10:55:22.222Z,41940.75
2023-05-07T10:58:32.809Z,41930.78
2023-05-07T11:01:58.640Z,41908.81
2023-05-07T11:04:43.165Z,41914.81
2023-05-07T11:07:29.458Z,41934.78
2023-05-07T11:10:04.718Z,41890.84
2023-05-07T11:12:40.173Z,41878.88
2023-05-07T11:15:38.938Z,41898.84
2023-05-07T11:18:14.921Z,41856.91
2023-05-07T11:20:52.152Z,41886.84
2023-05-07T11:23:36.415Z,41872.88
2023-05-07T11:26:12.422Z,41864.91
2023-05-07T11:28:45.353Z,41878.88
2023-05-07T11:31:12.543Z,41882.88
2023-05-07T11:33:41.757Z,41906.81
2023-05-07T11:36:13.303Z,41870.88
2023-05-07T11:38:46.117Z,41868.91
2023-05-07T11:41:12.549Z,41850.94
2023-05-07T11:43:40.944Z,41834.97
2023-05-07T11:46:10.122Z,41799.03
2023-05-07T11:48:37.278Z,41759.09
2023-05-07T11:51:09.963Z,41767.09
2023-05-07T11:53:38.807Z,41735.16
2023-05-07T11:56:09.238Z,41703.19
2023-05-07T11:58:35.898Z,41711.19
2023-05-07T12:01:02.347Z,41711.19
2023-05-07T12:03:30.455Z,41715.19
2023-05-07T12:05:58.569Z,41679.25
2023-05-07T12:08:25.188Z,41663.28
2023-05-07T12:10:52.321Z,41655.28
2023-05-07T12:13:20.336Z,41623.34
2023-05-07T12:15:47.121Z,41613.38
2023-05-07T12:18:14.193Z,41591.41
2023-05-07T12:20:41.048Z,41565.47
2023-05-07T12:23:07.872Z,41539.53
2023-05-07T12:25:39.046Z,41563.47
2023-05-07T12:28:06.044Z,41571.47
2023-05-07T12:30:41.501Z,41559.47
2023-05-07T12:33:08.414Z,41559.47
2023-05-07T12:35:43.495Z,41531.53
2023-05-07T12:38:13.299Z,41491.63
2023-05-07T12:40:40.753Z,41479.63
2023-05-07T12:43:07.409Z,41485.63
2023-05-07T12:45:43.356Z,41479.63
2023-05-07T12:48:11.091Z,41447.69
2023-05-07T12:50:37.746Z,41429.72
2023-05-07T12:53:08.892Z,41407.78
2023-05-07T12:55:43.469Z,41421.75
2023-05-07T12:58:16.818Z,41411.78
2023-05-07T13:00:44.366Z,41419.75
2023-05-07T13:03:11.937Z,41407.78
2023-05-07T13:05:38.519Z,41407.78
2023-05-07T13:08:05.284Z,41379.84
2023-05-07T13:10:31.803Z,41387.81
2023-05-07T13:12:58.327Z,41395.81
2023-05-07T13:15:24.769Z,41357.88
2023-05-07T13:17:51.809Z,41351.88
2023-05-07T13:20:18.507Z,41363.88
2023-05-07T13:22:45.257Z,41375.84
2023-05-07T13:25:11.888Z,41359.88
2023-05-07T13:27:38.558Z,41329.94
2023-05-07T13:30:05.930Z,41345.91
2023-05-07T13:32:32.553Z,41347.91
2023-05-07T13:34:59.347Z,41379.84
2023-05-07T13:37:25.974Z,41365.84
2023-05-07T13:39:52.605Z,41355.88
2023-05-07T13:42:19.004Z,41387.81
2023-05-07T13:44:46.214Z,41371.84
2023-05-07T13:47:12.619Z,41383.81
2023-05-07T13:49:41.582Z,41375.84
2023-05-07T13:52:08.002Z,41395.81
2023-05-07T13:54:34.807Z,41399.78
2023-05-07T13:57:01.428Z,41371.84
2023-05-07T13:59:27.938Z,41391.81
2023-05-07T14:01:55.852Z,41363.88
2023-05-07T14:04:22.359Z,41367.84
2023-05-07T14:06:48.754Z,41385.81
2023-05-07T14:09:15.428Z,41369.84
2023-05-07T14:11:42.108Z,41395.81
2023-05-07T14:14:11.469Z,41379.84
2023-05-07T14:16:38.264Z,41355.88
2023-05-07T14:19:04.742Z,41375.84
2023-05-07T14:21:31.777Z,41375.84
2023-05-07T14:23:58.193Z,41371.84
2023-05-07T14:26:24.595Z,41357.88
2023-05-07T14:28:51.049Z,41355.88
2023-05-07T14:31:17.577Z,41367.84
2023-05-07T14:33:44.153Z,41375.84
2023-05-07T14:36:11.229Z,41359.88
2023-05-07T14:38:37.805Z,41367.84
2023-05-07T14:41:04.270Z,41375.84
2023-05-07T14:43:30.688Z,41375.84
2023-05-07T14:45:57.127Z,41367.84
2023-05-07T14:48:23.624Z,41347.91
2023-05-07T14:50:50.494Z,41375.84
2023-05-07T14:53:17.006Z,41351.88
2023-05-07T14:55:43.733Z,41363.88
2023-05-07T14:58:11.998Z,41387.81
2023-05-07T15:00:38.473Z,41383.81
2023-05-07T15:03:08.584Z,41403.78
2023-05-07T15:05:36.292Z,41419.75
2023-05-07T15:08:02.955Z,41427.75
2023-05-07T15:10:29.599Z,41453.69
2023-05-07T15:12:56.010Z,41451.69
2023-05-07T15:15:22.499Z,41423.75
2023-05-07T15:17:50.060Z,41419.75
2023-05-07T15:20:16.592Z,41439.72
2023-05-07T15:22:43.024Z,41399.78
2023-05-07T15:25:10.554Z,41379.84
2023-05-07T15:27:37.340Z,41403.78
2023-05-07T15:30:04.196Z,41399.78
2023-05-07T15:32:32.164Z,41391.81
2023-05-07T15:34:58.685Z,41387.81
2023-05-07T15:37:25.238Z,41389.81
2023-05-07T15:39:51.668Z,41395.81
2023-05-07T15:42:18.287Z,41403.78
2023-05-07T15:44:44.693Z,41395.81
2023-05-07T15:47:11.132Z,41405.78
2023-05-07T15:49:37.546Z,41387.81
2023-05-07T15:52:04.494Z,41391.81
2023-05-07T15:54:31.011Z,41377.84
2023-05-07T15:56:58.453Z,41391.81
2023-05-07T15:59:25.152Z,41389.81
2023-05-07T16:01:52.498Z,41383.81
2023-05-07T16:04:19.002Z,41383.81
2023-05-07T16:06:47.257Z,41379.84
2023-05-07T16:09:14.297Z,41391.81
2023-05-07T16:11:40.711Z,41359.88
2023-05-07T16:14:07.123Z,41399.78
2023-05-07T16:16:34.583Z,41389.81
2023-05-07T16:19:01.321Z,41395.81
2023-05-07T16:21:28.259Z,41435.72
2023-05-07T16:23:54.632Z,41403.78
2023-05-07T16:26:21.365Z,41419.75
2023-05-07T16:28:48.355Z,41413.75
2023-05-07T16:31:14.863Z,41425.75
2023-05-07T16:33:41.335Z,41439.72
2023-05-07T16:36:07.942Z,41443.72
2023-05-07T16:38:34.827Z,41415.75
2023-05-07T16:41:01.690Z,41425.75
2023-05-07T16:43:28.433Z,41435.72
2023-05-07T16:45:54.929Z,41433.72
2023-05-07T16:48:21.943Z,41431.72
2023-05-07T16:50:48.650Z,41451.69
2023-05-07T16:53:15.472Z,41447.69
2023-05-07T16:55:42.094Z,41421.75
2023-05-07T16:58:11.153Z,41415.75
2023-05-07T17:00:48.926Z,41437.72
2023-05-07T17:03:17.000Z,41447.69
2023-05-07T17:05:43.510Z,41435.72
2023-05-07T17:08:10.121Z,41431.72
2023-05-07T17:10:36.524Z,41419.75
2023-05-07T17:13:02.989Z,41455.69
2023-05-07T17:15:29.515Z,41435.72
2023-05-07T17:17:56.019Z,41439.72
2023-05-07T17:20:22.574Z,41439.72
2023-05-07T17:22:48.946Z,41427.75
2023-05-07T17:25:16.125Z,41447.69
2023-05-07T17:27:42.544Z,41423.75
2023-05-07T17:30:09.606Z,41411.78
2023-05-07T17:32:36.148Z,41387.81
2023-05-07T17:35:03.177Z,41389.81
2023-05-07T17:37:29.578Z,41373.84
2023-05-07T17:39:56.429Z,41357.88
2023-05-07T17:42:23.273Z,41363.88
2023-05-07T17:44:49.710Z,41343.91
2023-05-07T17:47:16.090Z,41383.81
2023-05-07T17:49:43.219Z,41357.88
2023-05-07T17:52:10.402Z,41343.91
2023-05-07T17:54:36.813Z,41345.91
2023-05-07T17:57:03.526Z,41343.91
2023-05-07T17:59:30.012Z,41347.91
2023-05-07T18:01:56.649Z,41323.94
2023-05-07T18:04:25.543Z,41325.94
2023-05-07T18:06:51.944Z,41337.91
2023-05-07T18:09:18.350Z,41319.94
2023-05-07T18:11:45.195Z,41341.91
2023-05-07T18:14:11.594Z,41309.97
2023-05-07T18:16:38.198Z,41331.94
2023-05-07T18:19:05.426Z,41321.94
2023-05-07T18:21:32.449Z,41284.03
2023-05-07T18:23:58.815Z,41319.94
2023-05-07T18:26:25.348Z,41284.03
2023-05-07T18:28:52.080Z,41288.00
2023-05-07T18:31:20.486Z,41292.00
2023-05-07T18:33:46.986Z,41270.06
2023-05-07T18:36:13.464Z,41280.03
2023-05-07T18:38:42.405Z,41288.00
2023-05-07T18:41:09.085Z,41270.06
2023-05-07T18:43:35.540Z,41296.00
2023-05-07T18:46:02.112Z,41282.03
2023-05-07T18:48:28.648Z,41290.00
2023-05-07T18:50:55.409Z,41284.03
2023-05-07T18:53:22.033Z,41288.00
2023-05-07T18:55:51.758Z,41298.00
2023-05-07T18:58:19.810Z,41296.00
2023-05-07T19:00:49.929Z,41315.97
2023-05-07T19:03:17.037Z,41311.97
2023-05-07T19:05:44.381Z,41313.97
2023-05-07T19:08:11.227Z,41280.03
2023-05-07T19:10:37.747Z,41276.03
2023-05-07T19:13:04.221Z,41262.06
2023-05-07T19:15:30.600Z,41258.06
2023-05-07T19:17:57.535Z,41272.06
2023-05-07T19:20:24.006Z,41282.03
2023-05-07T19:22:50.637Z,41276.03
2023-05-07T19:25:18.101Z,41270.06
2023-05-07T19:27:44.528Z,41256.09
2023-05-07T19:30:11.432Z,41272.06
2023-05-07T19:32:38.921Z,41268.06
2023-05-07T19:35:05.672Z,41268.06
2023-05-07T19:37:32.112Z,41268.06
2023-05-07T19:39:58.568Z,41292.00
2023-05-07T19:42:25.033Z,41280.03
2023-05-07T19:44:51.446Z,41282.03
2023-05-07T19:47:18.588Z,41288.00
2023-05-07T19:49:45.413Z,41288.00
2023-05-07T19:52:11.841Z,41284.03
2023-05-07T19:54:38.322Z,41288.00
2023-05-07T19:57:07.222Z,41254.09
2023-05-07T19:59:33.706Z,41284.03
2023-05-07T20:02:00.280Z,41286.03
2023-05-07T20:04:31.766Z,41276.03
2023-05-07T20:06:58.539Z,41260.06
2023-05-07T20:09:25.232Z,41246.09
2023-05-07T20:11:51.590Z,41230.13
2023-05-07T20:14:17.981Z,41224.16
2023-05-07T20:16:45.667Z,41208.19
2023-05-07T20:19:12.152Z,41200.19
2023-05-07T20:21:38.638Z,41200.19
2023-05-07T20:24:05.861Z,41212.16
2023-05-07T20:26:32.395Z,41194.22
2023-05-07T20:28:59.033Z,41192.22
2023-05-07T20:31:26.031Z,41220.16
2023-05-07T20:33:52.559Z,41200.19
2023-05-07T20:36:19.152Z,41212.16
2023-05-07T20:38:45.760Z,41204.19
2023-05-07T20:41:15.040Z,41204.19
2023-05-07T20:43:41.912Z,41228.13
2023-05-07T20:46:08.587Z,41208.19
2023-05-07T20:48:35.478Z,41228.13
2023-05-07T20:51:02.979Z,41224.16
2023-05-07T20:53:30.696Z,41220.16
2023-05-07T20:55:58.244Z,41228.13
2023-05-07T20:58:25.898Z,41256.09
2023-05-07T21:00:53.085Z,41238.13
2023-05-07T21:03:20.438Z,41266.06
2023-05-07T21:05:54.409Z,41268.06
2023-05-07T21:08:21.163Z,41276.03
2023-05-07T21:10:48.680Z,41270.06
2023-05-07T21:13:15.961Z,41252.09
2023-05-07T21:15:42.934Z,41276.03
2023-05-07T21:18:12.615Z,41276.03
2023-05-07T21:20:39.139Z,41290.00
2023-05-07T21:23:05.935Z,41292.00
2023-05-07T21:25:32.438Z,41272.06
2023-05-07T21:27:59.510Z,41303.97
2023-05-07T21:30:25.973Z,41296.00
2023-05-07T21:32:52.973Z,41298.00
2023-05-07T21:35:19.722Z,41327.94
2023-05-07T21:37:46.220Z,41319.94
2023-05-07T21:40:13.255Z,41311.97
2023-05-07T21:42:40.283Z,41327.94
2023-05-07T21:45:07.635Z,41331.94
2023-05-07T21:47:34.338Z,41323.94
2023-05-07T21:50:01.665Z,41327.94
2023-05-07T21:52:28.242Z,41359.88
2023-05-07T21:54:54.749Z,41347.91
2023-05-07T21:57:21.255Z,41363.88
2023-05-07T21:59:47.999Z,41359.88
2023-05-07T22:02:14.403Z,41359.88
2023-05-07T22:04:40.869Z,41403.78
2023-05-07T22:07:07.307Z,41397.78
2023-05-07T22:09:33.831Z,41419.75
2023-05-07T22:12:00.365Z,41421.75
2023-05-07T22:14:26.804Z,41423.75
2023-05-07T22:16:53.434Z,41427.75
2023-05-07T22:19:20.282Z,41431.72
2023-05-07T22:21:46.693Z,41471.66
2023-05-07T22:24:13.123Z,41487.63
2023-05-07T22:26:39.581Z,41507.59
2023-05-07T22:29:06.104Z,41527.53
2023-05-07T22:31:32.548Z,41545.50
2023-05-07T22:33:59.013Z,41559.47
2023-05-07T22:36:25.654Z,41555.50
2023-05-07T22:38:52.076Z,41595.41
2023-05-07T22:41:18.547Z,41623.34
2023-05-07T22:43:45.149Z,41623.34
2023-05-07T22:46:11.815Z,41635.34
2023-05-07T22:48:38.414Z,41679.25
2023-05-07T22:51:05.098Z,41671.25
2023-05-07T22:53:31.549Z,41707.19
2023-05-07T22:55:58.288Z,41739.13
2023-05-07T22:58:24.862Z,41749.13
2023-05-07T23:00:51.331Z,41791.03
2023-05-07T23:03:18.003Z,41799.03
2023-05-07T23:05:45.046Z,41815.00
2023-05-07T23:08:12.089Z,41840.94
2023-05-07T23:10:38.525Z,41882.88
2023-05-07T23:13:05.305Z,41896.84
2023-05-07T23:15:33.220Z,41930.78
2023-05-07T23:18:00.075Z,41926.78
2023-05-07T23:20:26.735Z,41958.72
2023-05-07T23:22:53.136Z,41982.69
2023-05-07T23:25:19.645Z,42016.63
2023-05-07T23:27:46.117Z,42052.56
2023-05-07T23:30:13.118Z,42070.53
2023-05-07T23:32:39.939Z,42114.44
2023-05-07T23:35:07.149Z,42140.41
2023-05-07T23:37:33.835Z,42166.34
2023-05-07T23:40:00.235Z,42172.34
2023-05-07T23:42:26.602Z,42190.31
2023-05-07T23:44:53.377Z,42214.28
2023-05-07T23:47:19.847Z,42270.19
2023-05-07T23:49:46.339Z,42290.13
2023-05-07T23:52:12.742Z,42298.13
2023-05-07T23:54:39.160Z,42320.09
2023-05-07T23:57:05.623Z,42350.03
2023-05-07T23:59:32.085Z,42368.00
